createdAt,value
2018-06-01T00:00:34.423Z,30.95
2018-06-01T00:01:34.412Z,31.05
2018-06-01T00:02:34.717Z,30.18
2018-06-01T00:03:34.385Z,29.99
2018-06-01T00:04:34.375Z,29.99
2018-06-01T00:05:34.639Z,29.8
2018-06-01T00:06:34.627Z,30.47
2018-06-01T00:07:34.616Z,30.57
2018-06-01T00:08:34.338Z,29.9
2018-06-01T00:09:34.409Z,30.47
2018-06-01T00:10:34.581Z,30.47
2018-06-01T00:11:34.579Z,29.99
2018-06-01T00:12:34.563Z,30.28
2018-06-01T00:13:34.554Z,30.65
2018-06-01T00:14:34.543Z,30.74
2018-06-01T00:15:34.531Z,30.76
2018-06-01T00:16:34.253Z,30.93
2018-06-01T00:17:34.245Z,29.88
2018-06-01T00:18:34.239Z,28.82
2018-06-01T00:19:34.222Z,28.92
2018-06-01T00:20:34.220Z,28.92
2018-06-01T00:21:34.465Z,28.92
2018-06-01T00:22:34.194Z,28.63
2018-06-01T00:23:34.185Z,28.53
2018-06-01T00:24:34.174Z,29.02
2018-06-01T00:25:34.165Z,28.82
2018-06-01T00:26:34.418Z,28.92
2018-06-01T00:27:34.407Z,29.4
2018-06-01T00:28:34.396Z,29.21
2018-06-01T00:29:34.384Z,28.72
2018-06-01T00:30:34.378Z,28.82
2018-06-01T00:31:34.369Z,29.11
2018-06-01T00:32:34.092Z,28.53
2018-06-01T00:33:34.356Z,28.72
2018-06-01T00:34:34.344Z,28.53
2018-06-01T00:35:34.326Z,28.05
2018-06-01T00:36:34.316Z,27.67
2018-06-01T00:37:34.246Z,27.67
2018-06-01T00:38:34.028Z,27.67
2018-06-01T00:39:34.023Z,27.67
2018-06-01T00:40:34.278Z,27.76
2018-06-01T00:41:34.270Z,27.76
2018-06-01T00:42:34.254Z,27.76
2018-06-01T00:43:33.981Z,27.95
2018-06-01T00:44:33.970Z,27.95
2018-06-01T00:45:34.222Z,27.67
2018-06-01T00:46:34.219Z,28.05
2018-06-01T00:47:33.940Z,27.95
2018-06-01T00:48:34.243Z,28.34
2018-06-01T00:49:34.192Z,28.44
2018-06-01T00:50:33.910Z,28.53
2018-06-01T00:51:34.162Z,28.72
2018-06-01T00:52:33.889Z,28.63
2018-06-01T00:53:34.150Z,29.02
2018-06-01T00:54:33.867Z,28.92
2018-06-01T00:55:34.121Z,29.4
2018-06-01T00:56:33.851Z,29.02
2018-06-01T00:57:34.103Z,29.4
2018-06-01T00:58:34.090Z,29.11
2018-06-01T00:59:33.833Z,29.02
2018-06-01T01:00:33.805Z,29.3
2018-06-01T01:01:34.062Z,28.63
2018-06-01T01:02:34.050Z,28.53
2018-06-01T01:03:33.778Z,28.15
2018-06-01T01:04:34.084Z,27.76
2018-06-01T01:05:33.757Z,27.48
2018-06-01T01:06:33.741Z,27.38
2018-06-01T01:07:33.740Z,27.09
2018-06-01T01:08:33.724Z,27.19
2018-06-01T01:09:33.974Z,27.28
2018-06-01T01:10:33.970Z,27.19
2018-06-01T01:11:33.695Z,27.09
2018-06-01T01:12:33.682Z,26.9
2018-06-01T01:13:33.932Z,27.19
2018-06-01T01:14:33.979Z,27.09
2018-06-01T01:15:33.648Z,26.71
2018-06-01T01:16:33.643Z,27
2018-06-01T01:17:33.899Z,26.9
2018-06-01T01:18:33.882Z,27
2018-06-01T01:19:33.924Z,27.09
2018-06-01T01:20:33.865Z,27.09
2018-06-01T01:21:33.585Z,27.09
2018-06-01T01:22:33.845Z,27.19
2018-06-01T01:23:33.573Z,27.28
2018-06-01T01:24:33.557Z,27.58
2018-06-01T01:25:33.811Z,27.48
2018-06-01T01:26:33.537Z,27.28
2018-06-01T01:27:33.791Z,27.67
2018-06-01T01:28:33.826Z,27.76
2018-06-01T01:29:33.503Z,27.67
2018-06-01T01:30:33.760Z,27.76
2018-06-01T01:31:33.747Z,27.95
2018-06-01T01:32:33.746Z,27.84
2018-06-01T01:33:33.727Z,27.86
2018-06-01T01:34:33.718Z,28.34
2018-06-01T01:35:33.706Z,28.33
2018-06-01T01:36:33.695Z,27.86
2018-06-01T01:37:33.427Z,27.86
2018-06-01T01:38:33.678Z,28.05
2018-06-01T01:39:33.671Z,27.76
2018-06-01T01:40:33.388Z,27.86
2018-06-01T01:41:33.644Z,27.86
2018-06-01T01:42:33.369Z,28.05
2018-06-01T01:43:33.381Z,27.56
2018-06-01T01:44:33.349Z,27.67
2018-06-01T01:45:33.608Z,27.58
2018-06-01T01:46:33.327Z,27.19
2018-06-01T01:47:33.322Z,26.98
2018-06-01T01:48:33.308Z,27.09
2018-06-01T01:49:33.297Z,27
2018-06-01T01:50:33.561Z,27
2018-06-01T01:51:33.540Z,27.19
2018-06-01T01:52:33.538Z,27.48
2018-06-01T01:53:33.522Z,27.58
2018-06-01T01:54:33.246Z,27.76
2018-06-01T01:55:33.500Z,27.86
2018-06-01T01:56:33.223Z,27.86
2018-06-01T01:57:33.482Z,27.66
2018-06-01T01:58:33.473Z,27.95
2018-06-01T01:59:33.460Z,27.75
2018-06-01T02:00:33.188Z,27.94
2018-06-01T02:01:33.173Z,28.05
2018-06-01T02:02:33.427Z,27.67
2018-06-01T02:03:33.419Z,27.76
2018-06-01T02:04:33.406Z,27.27
2018-06-01T02:05:33.135Z,27.19
2018-06-01T02:06:33.387Z,27.09
2018-06-01T02:07:33.382Z,27.19
2018-06-01T02:08:33.371Z,27.38
2018-06-01T02:09:33.096Z,27.48
2018-06-01T02:10:33.341Z,27.19
2018-06-01T02:11:33.068Z,27.37
2018-06-01T02:12:33.324Z,27.28
2018-06-01T02:13:33.050Z,27.17
2018-06-01T02:14:33.302Z,27.48
2018-06-01T02:15:33.023Z,27.67
2018-06-01T02:16:33.289Z,27.76
2018-06-01T02:17:33.006Z,27.66
2018-06-01T02:18:33.262Z,27.67
2018-06-01T02:19:33.250Z,27.66
2018-06-01T02:20:32.984Z,27.56
2018-06-01T02:21:33.233Z,27.95
2018-06-01T02:22:32.958Z,27.95
2018-06-01T02:23:33.216Z,27.47
2018-06-01T02:24:32.934Z,27.56
2018-06-01T02:25:32.926Z,27.47
2018-06-01T02:26:32.911Z,27.17
2018-06-01T02:27:32.900Z,27.28
2018-06-01T02:28:32.908Z,27.37
2018-06-01T02:29:33.146Z,27.08
2018-06-01T02:30:32.872Z,27.08
2018-06-01T02:31:33.130Z,26.9
2018-06-01T02:32:32.853Z,26.7
2018-06-01T02:33:32.839Z,26.89
2018-06-01T02:34:33.097Z,26.79
2018-06-01T02:35:32.817Z,26.98
2018-06-01T02:36:33.075Z,26.89
2018-06-01T02:37:33.000Z,26.7
2018-06-01T02:38:33.054Z,26.6
2018-06-01T02:39:33.046Z,26.5
2018-06-01T02:40:33.041Z,26.81
2018-06-01T02:41:32.759Z,26.5
2018-06-01T02:42:32.747Z,26.4
2018-06-01T02:43:33.001Z,26.7
2018-06-01T02:44:32.988Z,26.7
2018-06-01T02:45:32.981Z,26.7
2018-06-01T02:46:32.706Z,26.98
2018-06-01T02:47:32.692Z,26.98
2018-06-01T02:48:32.946Z,26.98
2018-06-01T02:49:32.939Z,27.27
2018-06-01T02:50:32.929Z,27.37
2018-06-01T02:51:32.939Z,27.27
2018-06-01T02:52:32.907Z,27.27
2018-06-01T02:53:32.902Z,27.56
2018-06-01T02:54:32.895Z,27.75
2018-06-01T02:55:32.875Z,27.56
2018-06-01T02:56:32.872Z,27.56
2018-06-01T02:57:32.851Z,27.56
2018-06-01T02:58:32.843Z,27.75
2018-06-01T02:59:32.574Z,27.47
2018-06-01T03:00:32.556Z,27.47
2018-06-01T03:01:32.811Z,27.75
2018-06-01T03:02:32.797Z,27.66
2018-06-01T03:03:32.523Z,27.56
2018-06-01T03:04:32.513Z,27.27
2018-06-01T03:05:32.764Z,27.56
2018-06-01T03:06:32.493Z,27.47
2018-06-01T03:07:32.478Z,27.37
2018-06-01T03:08:32.470Z,27.17
2018-06-01T03:09:32.455Z,27.56
2018-06-01T03:10:32.713Z,27.17
2018-06-01T03:11:32.440Z,27.27
2018-06-01T03:12:32.695Z,27.47
2018-06-01T03:13:32.689Z,27.37
2018-06-01T03:14:32.678Z,27.17
2018-06-01T03:15:32.665Z,27.17
2018-06-01T03:16:32.385Z,26.89
2018-06-01T03:17:32.638Z,26.89
2018-06-01T03:18:32.628Z,26.89
2018-06-01T03:19:32.623Z,27.08
2018-06-01T03:20:32.606Z,26.89
2018-06-01T03:21:32.334Z,26.98
2018-06-01T03:22:32.320Z,26.98
2018-06-01T03:23:32.573Z,27.17
2018-06-01T03:24:32.561Z,27.27
2018-06-01T03:25:32.291Z,27.08
2018-06-01T03:26:32.276Z,27.27
2018-06-01T03:27:32.532Z,27.27
2018-06-01T03:28:32.256Z,26.89
2018-06-01T03:29:32.512Z,26.98
2018-06-01T03:30:32.503Z,26.89
2018-06-01T03:31:32.225Z,26.89
2018-06-01T03:32:32.483Z,26.98
2018-06-01T03:33:32.475Z,26.7
2018-06-01T03:34:32.461Z,26.6
2018-06-01T03:35:32.444Z,26.79
2018-06-01T03:36:32.172Z,26.5
2018-06-01T03:37:32.440Z,26.5
2018-06-01T03:38:32.422Z,26.89
2018-06-01T03:39:32.408Z,26.6
2018-06-01T03:40:32.130Z,27.08
2018-06-01T03:41:32.396Z,26.79
2018-06-01T03:42:32.373Z,27.08
2018-06-01T03:43:32.363Z,26.7
2018-06-01T03:44:32.086Z,26.4
2018-06-01T03:45:32.341Z,26.03
2018-06-01T03:46:32.069Z,25.93
2018-06-01T03:47:32.052Z,25.73
2018-06-01T03:48:32.046Z,25.83
2018-06-01T03:49:32.037Z,25.83
2018-06-01T03:50:32.290Z,25.73
2018-06-01T03:51:32.280Z,25.83
2018-06-01T03:52:32.002Z,25.73
2018-06-01T03:53:31.998Z,26.13
2018-06-01T03:54:31.983Z,25.84
2018-06-01T03:55:32.236Z,25.93
2018-06-01T03:56:32.226Z,26.12
2018-06-01T03:57:32.221Z,26.32
2018-06-01T03:58:32.209Z,26.4
2018-06-01T03:59:32.191Z,26.4
2018-06-01T04:00:32.188Z,26.13
2018-06-01T04:01:32.172Z,26.6
2018-06-01T04:02:32.166Z,26.42
2018-06-01T04:03:32.158Z,26.7
2018-06-01T04:04:32.149Z,26.61
2018-06-01T04:05:32.137Z,26.42
2018-06-01T04:06:32.120Z,26.5
2018-06-01T04:07:32.114Z,26.13
2018-06-01T04:08:31.835Z,26.21
2018-06-01T04:09:31.829Z,26.31
2018-06-01T04:10:32.079Z,26.42
2018-06-01T04:11:31.809Z,26.23
2018-06-01T04:12:32.065Z,26.23
2018-06-01T04:13:31.786Z,26.04
2018-06-01T04:14:32.044Z,26.51
2018-06-01T04:15:32.030Z,26.51
2018-06-01T04:16:31.752Z,26.51
2018-06-01T04:17:32.023Z,26.71
2018-06-01T04:18:31.733Z,26.32
2018-06-01T04:19:31.883Z,26.31
2018-06-01T04:20:31.711Z,26.12
2018-06-01T04:21:31.967Z,26.31
2018-06-01T04:22:31.959Z,26.61
2018-06-01T04:23:31.950Z,26.13
2018-06-01T04:24:31.939Z,26.13
2018-06-01T04:25:31.924Z,26.42
2018-06-01T04:26:31.924Z,26.42
2018-06-01T04:27:31.641Z,26.51
2018-06-01T04:28:31.631Z,26.51
2018-06-01T04:29:31.619Z,26.04
2018-06-01T04:30:31.873Z,26.04
2018-06-01T04:31:31.862Z,26.23
2018-06-01T04:32:31.591Z,26.13
2018-06-01T04:33:31.626Z,26.23
2018-06-01T04:34:31.839Z,26.13
2018-06-01T04:35:31.557Z,26.13
2018-06-01T04:36:31.814Z,26.71
2018-06-01T04:37:31.800Z,26.42
2018-06-01T04:38:31.529Z,26.32
2018-06-01T04:39:31.781Z,26.51
2018-06-01T04:40:31.858Z,26.32
2018-06-01T04:41:31.496Z,26.32
2018-06-01T04:42:31.752Z,26.51
2018-06-01T04:43:31.747Z,26.61
2018-06-01T04:44:31.730Z,26.81
2018-06-01T04:45:31.460Z,26.81
2018-06-01T04:46:31.712Z,26.9
2018-06-01T04:47:31.436Z,26.82
2018-06-01T04:48:31.687Z,26.82
2018-06-01T04:49:31.680Z,26.82
2018-06-01T04:50:31.407Z,26.92
2018-06-01T04:51:31.662Z,27.01
2018-06-01T04:52:31.653Z,26.72
2018-06-01T04:53:31.700Z,26.82
2018-06-01T04:54:31.365Z,26.72
2018-06-01T04:55:31.629Z,26.82
2018-06-01T04:56:31.609Z,27.11
2018-06-01T04:57:31.608Z,27.11
2018-06-01T04:58:31.595Z,26.92
2018-06-01T04:59:31.315Z,26.92
2018-06-01T05:00:31.580Z,27.11
2018-06-01T05:01:31.298Z,27.01
2018-06-01T05:02:31.550Z,26.92
2018-06-01T05:03:31.272Z,27.11
2018-06-01T05:04:31.537Z,26.82
2018-06-01T05:05:31.260Z,26.82
2018-06-01T05:06:31.513Z,26.82
2018-06-01T05:07:31.503Z,26.92
2018-06-01T05:08:31.498Z,26.82
2018-06-01T05:09:31.481Z,27.11
2018-06-01T05:10:31.468Z,26.72
2018-06-01T05:11:31.196Z,26.82
2018-06-01T05:12:31.452Z,26.53
2018-06-01T05:13:31.443Z,26.92
2018-06-01T05:14:31.431Z,26.83
2018-06-01T05:15:31.421Z,26.83
2018-06-01T05:16:31.413Z,26.73
2018-06-01T05:17:31.401Z,26.83
2018-06-01T05:18:31.388Z,26.73
2018-06-01T05:19:31.116Z,26.93
2018-06-01T05:20:31.379Z,26.54
2018-06-01T05:21:31.363Z,26.64
2018-06-01T05:22:31.090Z,26.64
2018-06-01T05:23:31.348Z,27.02
2018-06-01T05:24:31.333Z,27.02
2018-06-01T05:25:31.323Z,27.5
2018-06-01T05:26:31.051Z,27.51
2018-06-01T05:27:31.304Z,27.12
2018-06-01T05:28:31.031Z,27.13
2018-06-01T05:29:31.288Z,27.51
2018-06-01T05:30:31.013Z,28
2018-06-01T05:31:31.298Z,27.81
2018-06-01T05:32:31.262Z,28.29
2018-06-01T05:33:31.246Z,28.58
2018-06-01T05:34:31.236Z,29.15
2018-06-01T05:35:31.002Z,30.11
2018-06-01T05:36:31.218Z,30.11
2018-06-01T05:37:31.208Z,30.5
2018-06-01T05:38:31.197Z,30.88
2018-06-01T05:39:30.926Z,32.23
2018-06-01T05:40:31.183Z,32.43
2018-06-01T05:41:31.187Z,32.44
2018-06-01T05:42:31.160Z,32.43
2018-06-01T05:43:31.159Z,32.71
2018-06-01T05:44:31.157Z,32.23
2018-06-01T05:45:30.870Z,32.33
2018-06-01T05:46:31.122Z,32.15
2018-06-01T05:47:30.866Z,32.52
2018-06-01T05:48:31.105Z,32.14
2018-06-01T05:49:31.098Z,32.34
2018-06-01T05:50:31.084Z,32.64
2018-06-01T05:51:31.083Z,33.12
2018-06-01T05:52:31.083Z,33.21
2018-06-01T05:53:31.065Z,33.02
2018-06-01T05:54:31.285Z,32.82
2018-06-01T05:55:31.045Z,33.12
2018-06-01T05:56:31.033Z,32.82
2018-06-01T05:57:31.028Z,33.89
2018-06-01T05:58:31.066Z,34.08
2018-06-01T05:59:30.746Z,34.86
2018-06-01T06:00:30.999Z,35.16
2018-06-01T06:01:30.732Z,34.94
2018-06-01T06:02:30.982Z,35.16
2018-06-01T06:03:30.968Z,35.16
2018-06-01T06:04:30.719Z,35.54
2018-06-01T06:05:30.953Z,36.02
2018-06-01T06:06:30.949Z,36.89
2018-06-01T06:07:30.669Z,37.37
2018-06-01T06:08:30.936Z,36.79
2018-06-01T06:09:30.917Z,36.89
2018-06-01T06:10:30.909Z,37.66
2018-06-01T06:11:30.902Z,36.99
2018-06-01T06:12:30.899Z,36.6
2018-06-01T06:13:30.645Z,37.27
2018-06-01T06:14:30.873Z,37.85
2018-06-01T06:15:30.605Z,38.04
2018-06-01T06:16:30.856Z,37.66
2018-06-01T06:17:30.862Z,37.66
2018-06-01T06:18:30.577Z,37.46
2018-06-01T06:19:30.561Z,37.46
2018-06-01T06:20:30.874Z,36.6
2018-06-01T06:21:30.813Z,36.6
2018-06-01T06:22:31.021Z,36.21
2018-06-01T06:23:30.801Z,36.02
2018-06-01T06:24:30.524Z,35.73
2018-06-01T06:25:30.777Z,36.11
2018-06-01T06:26:30.772Z,36.11
2018-06-01T06:27:30.763Z,35.16
2018-06-01T06:28:30.755Z,34.58
2018-06-01T06:29:30.745Z,34.38
2018-06-01T06:30:30.468Z,34.38
2018-06-01T06:31:30.589Z,34.29
2018-06-01T06:32:30.729Z,33.81
2018-06-01T06:33:30.490Z,33.61
2018-06-01T06:34:30.697Z,33.61
2018-06-01T06:35:30.691Z,33.91
2018-06-01T06:36:30.682Z,35.16
2018-06-01T06:37:30.671Z,34.86
2018-06-01T06:38:30.597Z,35.08
2018-06-01T06:39:30.652Z,35.35
2018-06-01T06:40:30.377Z,34.98
2018-06-01T06:41:30.636Z,35.65
2018-06-01T06:42:30.365Z,35.65
2018-06-01T06:43:30.618Z,35.75
2018-06-01T06:44:30.609Z,36.52
2018-06-01T06:45:30.598Z,36.81
2018-06-01T06:46:30.326Z,37.48
2018-06-01T06:47:30.585Z,38.64
2018-06-01T06:48:30.578Z,38.64
2018-06-01T06:49:30.567Z,38.76
2018-06-01T06:50:30.559Z,40.49
2018-06-01T06:51:30.554Z,41.07
2018-06-01T06:52:30.279Z,40.59
2018-06-01T06:53:30.532Z,40.76
2018-06-01T06:54:30.523Z,41.65
2018-06-01T06:55:30.256Z,41.94
2018-06-01T06:56:30.507Z,41.17
2018-06-01T06:57:30.232Z,40.69
2018-06-01T06:58:30.490Z,41.94
2018-06-01T06:59:30.489Z,41.36
2018-06-01T07:00:30.480Z,41.46
2018-06-01T07:01:30.201Z,41.84
2018-06-01T07:02:30.452Z,43.48
2018-06-01T07:03:30.457Z,44.73
2018-06-01T07:04:30.455Z,43.77
2018-06-01T07:05:30.431Z,42.32
2018-06-01T07:06:30.425Z,42.42
2018-06-01T07:07:30.156Z,43.29
2018-06-01T07:08:30.412Z,43.19
2018-06-01T07:09:30.145Z,43.77
2018-06-01T07:10:30.397Z,43.19
2018-06-01T07:11:30.120Z,43.29
2018-06-01T07:12:30.373Z,43
2018-06-01T07:13:30.371Z,43.67
2018-06-01T07:14:30.356Z,43.77
2018-06-01T07:15:30.140Z,43.19
2018-06-01T07:16:30.352Z,42.32
2018-06-01T07:17:30.336Z,43.19
2018-06-01T07:18:30.329Z,42.32
2018-06-01T07:19:30.323Z,42.03
2018-06-01T07:20:30.048Z,40.69
2018-06-01T07:21:30.301Z,41.17
2018-06-01T07:22:30.057Z,42.13
2018-06-01T07:23:30.027Z,42.52
2018-06-01T07:24:30.019Z,42.61
2018-06-01T07:25:30.268Z,43.38
2018-06-01T07:26:30.271Z,42.52
2018-06-01T07:27:30.258Z,42.13
2018-06-01T07:28:30.317Z,41.55
2018-06-01T07:29:30.248Z,42.03
2018-06-01T07:30:30.228Z,42.03
2018-06-01T07:31:30.228Z,41.84
2018-06-01T07:32:30.216Z,42.03
2018-06-01T07:33:30.205Z,42.13
2018-06-01T07:34:30.200Z,41.94
2018-06-01T07:35:30.187Z,41.65
2018-06-01T07:36:30.186Z,42.13
2018-06-01T07:37:30.182Z,42.13
2018-06-01T07:38:30.164Z,41.94
2018-06-01T07:39:29.893Z,41.27
2018-06-01T07:40:29.886Z,41.27
2018-06-01T07:41:30.142Z,41.17
2018-06-01T07:42:30.139Z,41.27
2018-06-01T07:43:30.125Z,40.97
2018-06-01T07:44:30.120Z,41.46
2018-06-01T07:45:30.117Z,40.97
2018-06-01T07:46:29.844Z,40.88
2018-06-01T07:47:29.830Z,40.49
2018-06-01T07:48:29.818Z,41.55
2018-06-01T07:49:30.082Z,41.46
2018-06-01T07:50:29.807Z,40.97
2018-06-01T07:51:30.065Z,40.2
2018-06-01T07:52:29.793Z,39.34
2018-06-01T07:53:30.264Z,39.34
2018-06-01T07:54:29.792Z,39.62
2018-06-01T07:55:29.778Z,39.72
2018-06-01T07:56:29.754Z,39.43
2018-06-01T07:57:29.777Z,38.74
2018-06-01T07:58:30.009Z,38.45
2018-06-01T07:59:29.747Z,38.16
2018-06-01T08:00:29.723Z,38.35
2018-06-01T08:01:29.989Z,38.64
2018-06-01T08:02:29.703Z,38.26
2018-06-01T08:03:30.066Z,38.06
2018-06-01T08:04:29.952Z,37.77
2018-06-01T08:05:29.679Z,37.48
2018-06-01T08:06:29.686Z,37.1
2018-06-01T08:07:29.935Z,36.33
2018-06-01T08:08:29.944Z,36.43
2018-06-01T08:09:29.916Z,36.33
2018-06-01T08:10:29.640Z,36.13
2018-06-01T08:11:29.633Z,35.65
2018-06-01T08:12:29.621Z,35.17
2018-06-01T08:13:29.872Z,34.59
2018-06-01T08:14:29.867Z,34.01
2018-06-01T08:15:29.594Z,32.38
2018-06-01T08:16:29.859Z,31.99
2018-06-01T08:17:29.841Z,32.09
2018-06-01T08:18:29.573Z,31.6
2018-06-01T08:19:29.560Z,31.03
2018-06-01T08:20:29.551Z,30.64
2018-06-01T08:21:29.809Z,30.26
2018-06-01T08:22:29.532Z,30.16
2018-06-01T08:23:29.818Z,29.49
2018-06-01T08:24:29.786Z,29.39
2018-06-01T08:25:29.771Z,28.33
2018-06-01T08:26:29.497Z,27.85
2018-06-01T08:27:29.490Z,28.31
2018-06-01T08:28:29.482Z,28.13
2018-06-01T08:29:29.736Z,27.83
2018-06-01T08:30:29.735Z,28.03
2018-06-01T08:31:29.459Z,27.64
2018-06-01T08:32:29.456Z,26.78
2018-06-01T08:33:29.703Z,26.87
2018-06-01T08:34:29.434Z,26.78
2018-06-01T08:35:29.691Z,26.78
2018-06-01T08:36:29.679Z,26.39
2018-06-01T08:37:29.402Z,26.58
2018-06-01T08:38:29.858Z,26.78
2018-06-01T08:39:29.785Z,26.87
2018-06-01T08:40:29.648Z,26.68
2018-06-01T08:41:29.636Z,26.58
2018-06-01T08:42:29.621Z,26.29
2018-06-01T08:43:29.346Z,26.48
2018-06-01T08:44:29.603Z,26.2
2018-06-01T08:45:29.595Z,25.81
2018-06-01T08:46:29.679Z,25.91
2018-06-01T08:47:29.584Z,25.52
2018-06-01T08:48:29.570Z,25.52
2018-06-01T08:49:29.295Z,24.74
2018-06-01T08:50:29.285Z,25.42
2018-06-01T08:51:29.284Z,25.42
2018-06-01T08:52:29.668Z,25.32
2018-06-01T08:53:29.524Z,25.13
2018-06-01T08:54:29.516Z,24.84
2018-06-01T08:55:29.242Z,24.93
2018-06-01T08:56:29.503Z,25.22
2018-06-01T08:57:29.222Z,25.03
2018-06-01T08:58:29.477Z,24.16
2018-06-01T08:59:29.470Z,24.07
2018-06-01T09:00:29.196Z,24.16
2018-06-01T09:01:29.450Z,24.26
2018-06-01T09:02:29.442Z,24.16
2018-06-01T09:03:29.434Z,24.55
2018-06-01T09:04:29.180Z,24.26
2018-06-01T09:05:29.540Z,24.45
2018-06-01T09:06:29.407Z,23.97
2018-06-01T09:07:29.397Z,24.07
2018-06-01T09:08:29.391Z,24.16
2018-06-01T09:09:29.377Z,23.78
2018-06-01T09:10:29.109Z,24.07
2018-06-01T09:11:29.373Z,24.16
2018-06-01T09:12:29.351Z,23.87
2018-06-01T09:13:29.344Z,23.97
2018-06-01T09:14:29.332Z,24.26
2018-06-01T09:15:29.320Z,24.45
2018-06-01T09:16:29.051Z,24.26
2018-06-01T09:17:29.305Z,24.07
2018-06-01T09:18:29.294Z,24.35
2018-06-01T09:19:29.018Z,24.35
2018-06-01T09:20:29.277Z,24.74
2018-06-01T09:21:29.270Z,24.26
2018-06-01T09:22:28.990Z,24.35
2018-06-01T09:23:28.991Z,24.35
2018-06-01T09:24:29.243Z,24.65
2018-06-01T09:25:29.290Z,24.65
2018-06-01T09:26:29.220Z,24.26
2018-06-01T09:27:29.213Z,24.74
2018-06-01T09:28:29.336Z,24.84
2018-06-01T09:29:28.926Z,25.9
2018-06-01T09:30:28.921Z,26.09
2018-06-01T09:31:29.179Z,26.28
2018-06-01T09:32:29.175Z,26.67
2018-06-01T09:33:28.891Z,26.67
2018-06-01T09:34:29.282Z,26.76
2018-06-01T09:35:29.147Z,26.86
2018-06-01T09:36:29.133Z,26.86
2018-06-01T09:37:29.123Z,26.67
2018-06-01T09:38:29.126Z,26.86
2018-06-01T09:39:28.836Z,27.15
2018-06-01T09:40:28.832Z,26.76
2018-06-01T09:41:28.827Z,26.95
2018-06-01T09:42:28.814Z,27.15
2018-06-01T09:43:29.075Z,26.86
2018-06-01T09:44:29.057Z,26.86
2018-06-01T09:45:28.798Z,26.95
2018-06-01T09:46:29.048Z,26.76
2018-06-01T09:47:29.039Z,26.86
2018-06-01T09:48:29.032Z,26.57
2018-06-01T09:49:29.025Z,26.57
2018-06-01T09:50:28.743Z,26.76
2018-06-01T09:51:28.733Z,26.95
2018-06-01T09:52:28.733Z,26.37
2018-06-01T09:53:28.717Z,25.12
2018-06-01T09:54:28.713Z,26.39
2018-06-01T09:55:29.067Z,26.1
2018-06-01T09:56:28.988Z,25.62
2018-06-01T09:57:28.685Z,26.2
2018-06-01T09:58:28.672Z,25.71
2018-06-01T09:59:28.669Z,26.2
2018-06-01T10:00:28.920Z,29.08
2018-06-01T10:01:28.648Z,29.76
2018-06-01T10:02:28.640Z,29.08
2018-06-01T10:03:28.898Z,28.31
2018-06-01T10:04:28.896Z,28.61
2018-06-01T10:05:28.881Z,29.08
2018-06-01T10:06:28.875Z,28.52
2018-06-01T10:07:28.866Z,28.91
2018-06-01T10:08:28.856Z,30.16
2018-06-01T10:09:28.589Z,29.97
2018-06-01T10:10:28.576Z,30.07
2018-06-01T10:11:28.836Z,33.53
2018-06-01T10:12:28.824Z,36.81
2018-06-01T10:13:28.814Z,35.27
2018-06-01T10:14:28.539Z,35.17
2018-06-01T10:15:28.851Z,36.61
2018-06-01T10:16:28.792Z,38.26
2018-06-01T10:17:28.521Z,39.04
2018-06-01T10:18:28.777Z,39.34
2018-06-01T10:19:28.826Z,39.24
2018-06-01T10:20:28.496Z,39.91
2018-06-01T10:21:28.489Z,40.97
2018-06-01T10:22:28.481Z,40.88
2018-06-01T10:23:28.469Z,41.94
2018-06-01T10:24:28.463Z,43.1
2018-06-01T10:25:28.490Z,44.56
2018-06-01T10:26:28.850Z,43.89
2018-06-01T10:27:28.708Z,45.34
2018-06-01T10:28:28.706Z,44.76
2018-06-01T10:29:28.696Z,43.21
2018-06-01T10:30:28.697Z,42.73
2018-06-01T10:31:28.435Z,43.89
2018-06-01T10:32:28.408Z,44.56
2018-06-01T10:33:28.397Z,43.79
2018-06-01T10:34:28.659Z,41.48
2018-06-01T10:35:28.718Z,43.33
2018-06-01T10:36:28.648Z,42.46
2018-06-01T10:37:28.379Z,40.72
2018-06-01T10:38:28.572Z,42.75
2018-06-01T10:39:28.397Z,42.75
2018-06-01T10:40:28.612Z,45.17
2018-06-01T10:41:28.601Z,45.36
2018-06-01T10:42:28.596Z,44.29
2018-06-01T10:43:28.325Z,42.39
2018-06-01T10:44:28.585Z,42.1
2018-06-01T10:45:28.577Z,42.1
2018-06-01T10:46:28.571Z,43.16
2018-06-01T10:47:28.301Z,44.32
2018-06-01T10:48:28.607Z,42.29
2018-06-01T10:49:28.553Z,45.28
2018-06-01T10:50:28.547Z,46.83
2018-06-01T10:51:28.537Z,47.22
2018-06-01T10:52:28.265Z,45.76
2018-06-01T10:53:28.531Z,48.37
2018-06-01T10:54:28.601Z,43.74
2018-06-01T10:55:28.451Z,44.42
2018-06-01T10:56:28.522Z,43.95
2018-06-01T10:57:28.500Z,43.35
2018-06-01T10:58:28.496Z,45.69
2018-06-01T10:59:28.503Z,45.98
2018-06-01T11:00:28.489Z,47.72
2018-06-01T11:01:28.480Z,46.27
2018-06-01T11:02:28.470Z,51.87
2018-06-01T11:03:28.467Z,52.84
2018-06-01T11:04:28.194Z,49.17
2018-06-01T11:05:28.455Z,47.14
2018-06-01T11:06:28.448Z,48.9
2018-06-01T11:07:28.444Z,52.17
2018-06-01T11:08:28.439Z,54.39
2018-06-01T11:09:28.446Z,49.95
2018-06-01T11:10:28.163Z,48.01
2018-06-01T11:11:28.155Z,54.32
2018-06-01T11:12:28.150Z,49.29
2018-06-01T11:13:28.151Z,53.16
2018-06-01T11:14:28.545Z,53.64
2018-06-01T11:15:28.444Z,57.12
2018-06-01T11:16:28.136Z,55.77
2018-06-01T11:17:28.125Z,54.03
2018-06-01T11:18:28.116Z,55.41
2018-06-01T11:19:28.382Z,54.53
2018-06-01T11:20:28.374Z,51.56
2018-06-01T11:21:28.550Z,59.5
2018-06-01T11:22:28.097Z,63.4
2018-06-01T11:23:28.091Z,70.56
2018-06-01T11:24:28.376Z,70.66
2018-06-01T11:25:28.362Z,63.69
2018-06-01T11:26:28.347Z,69.01
2018-06-01T11:27:28.344Z,75.4
2018-06-01T11:28:28.330Z,73.18
2018-06-01T11:29:28.063Z,72.89
2018-06-01T11:30:28.063Z,72.89
2018-06-01T11:31:28.319Z,69.89
2018-06-01T11:32:28.319Z,69.43
2018-06-01T11:33:28.309Z,71.86
2018-06-01T11:34:28.310Z,79.02
2018-06-01T11:35:28.306Z,77.28
2018-06-01T11:36:28.298Z,71.86
2018-06-01T11:37:28.292Z,67.02
2018-06-01T11:38:28.147Z,71.37
2018-06-01T11:39:28.284Z,73.83
2018-06-01T11:40:28.018Z,78
2018-06-01T11:41:28.277Z,79.35
2018-06-01T11:42:28.063Z,84.49
2018-06-01T11:43:28.001Z,81.1
2018-06-01T11:44:28.000Z,86.43
2018-06-01T11:45:27.998Z,83.62
2018-06-01T11:46:28.257Z,85.94
2018-06-01T11:47:28.006Z,83.23
2018-06-01T11:48:28.251Z,83.17
2018-06-01T11:49:28.249Z,87.44
2018-06-01T11:50:28.247Z,88.02
2018-06-01T11:51:28.068Z,88.02
2018-06-01T11:52:27.975Z,88.45
2018-06-01T11:53:28.238Z,86.9
2018-06-01T11:54:28.233Z,98.1
2018-06-01T11:55:28.238Z,96.36
2018-06-01T11:56:28.229Z,96.69
2018-06-01T11:57:28.284Z,99.02
2018-06-01T11:58:28.228Z,99.99
2018-06-01T11:59:27.959Z,99.99
2018-06-01T12:00:27.956Z,89.07
2018-06-01T12:01:27.953Z,99.99
2018-06-01T12:02:28.155Z,99.99
2018-06-01T12:03:28.215Z,99.99
2018-06-01T12:04:28.214Z,99.99
2018-06-01T12:05:28.216Z,99.99
2018-06-01T12:06:27.948Z,99.99
2018-06-01T12:07:28.215Z,99.99
2018-06-01T12:08:27.954Z,99.99
2018-06-01T12:09:28.216Z,99.99
2018-06-01T12:10:28.220Z,99.99
2018-06-01T12:11:28.217Z,99.99
2018-06-01T12:12:27.952Z,99.99
2018-06-01T12:13:28.219Z,99.99
2018-06-01T12:14:28.222Z,99.99
2018-06-01T12:15:27.952Z,99.99
2018-06-01T12:16:28.220Z,99.99
2018-06-01T12:17:28.230Z,99.99
2018-06-01T12:18:28.226Z,99.99
2018-06-01T12:19:27.951Z,99.99
2018-06-01T12:20:28.225Z,99.99
2018-06-01T12:21:28.217Z,99.99
2018-06-01T12:22:28.218Z,99.99
2018-06-01T12:23:27.948Z,99.99
2018-06-01T12:24:28.216Z,99.99
2018-06-01T12:25:28.209Z,99.99
2018-06-01T12:26:27.945Z,99.99
2018-06-01T12:27:28.209Z,99.99
2018-06-01T12:28:27.936Z,99.99
2018-06-01T12:29:28.332Z,99.99
2018-06-01T12:30:28.200Z,99.99
2018-06-01T12:31:27.929Z,99.99
2018-06-01T12:32:27.928Z,99.99
2018-06-01T12:33:27.928Z,99.99
2018-06-01T12:34:27.922Z,99.99
2018-06-01T12:35:28.187Z,99.99
2018-06-01T12:36:28.187Z,99.99
2018-06-01T12:37:28.206Z,99.99
2018-06-01T12:38:28.386Z,99.99
2018-06-01T12:39:28.178Z,99.99
2018-06-01T12:40:28.180Z,99.99
2018-06-01T12:41:28.188Z,99.99
2018-06-01T12:42:28.183Z,99.99
2018-06-01T12:43:28.177Z,99.99
2018-06-01T12:44:27.901Z,99.99
2018-06-01T12:45:28.164Z,99.99
2018-06-01T12:46:28.170Z,99.99
2018-06-01T12:47:27.904Z,99.99
2018-06-01T12:48:27.893Z,99.99
2018-06-01T12:49:27.893Z,99.99
2018-06-01T12:50:27.893Z,99.99
2018-06-01T12:51:28.157Z,99.99
2018-06-01T12:52:27.888Z,99.99
2018-06-01T12:53:28.151Z,99.99
2018-06-01T12:54:28.147Z,99.99
2018-06-01T12:55:28.144Z,99.99